• Join FlightAware (Why Join?)
  • Login
  • US Flag 
06:43PM EDT


 

Airport Tracker/Info


-or-


 

Live Flight TrackerFlight Track Log ✈ N7229X ✈ 03-May-2013 ✈ KSLC - KDVT

Flight Track Log - Related Links

Times and Time Zones

All times are in EDT time to prevent confusion due to time zone crossing. See the N7229X flight status page for this flight to view local times or setup timezone preferences in your user account.

Time Position Orientation Groundspeed Altitude Reporting Facility
EDT Latitude Longitude Course Direction KTS MPH feet Rate Location/Type
07:44PM 40.7908 -111.9761 293° West 82 94 4,700  Level Salt Lake Center
07:45PM 40.8022 -112.0119 293° West 99 114 5,900 780 Climbing Salt Lake Center
07:46PM 40.8042 -112.0336 277° West 100 115 6,400 660 Climbing Salt Lake Center
07:46PM 40.8056 -112.0506 276° West 95 109 6,700 840 Climbing Salt Lake Center
07:47PM 40.8053 -112.0689 269° West 97 112 7,300 900 Climbing Salt Lake Center
07:47PM 40.8078 -112.0839 282° West 91 105 7,600 660 Climbing Salt Lake Center
07:48PM 40.8078 -112.0992 270° West 86 99 8,000 720 Climbing Salt Lake Center
07:48PM 40.8089 -112.1117 277° West 88 101 8,300 660 Climbing Salt Lake Center
07:49PM 40.8047 -112.1314 254° West 89 102 8,700 600 Climbing Salt Lake Center
07:49PM 40.8008 -112.1483 253° West 86 99 9,000 660 Climbing Salt Lake Center
07:50PM 40.7975 -112.1608 251° West 86 99 9,400 540 Climbing Salt Lake Center
07:51PM 40.7894 -112.1883 249° West 83 96 10,000 600 Climbing Salt Lake Center
07:52PM 40.7644 -112.1506 131° Southeast 112 129 10,700 600 Climbing Salt Lake Center
07:53PM 40.7486 -112.1200 124° Southeast 103 119 11,300 480 Climbing Salt Lake Center
07:54PM 40.7261 -112.1078 158° South 91 105 11,800 300 Climbing Salt Lake Center
07:55PM 40.6994 -112.1000 168° South 99 114 12,000 60 Climbing Salt Lake Center
07:56PM 40.6628 -112.0931 172° South 132 152 12,000  Level Salt Lake Center
07:57PM 40.6203 -112.0839 171° South 153 176 12,000  Level Salt Lake Center
07:58PM 40.5675 -112.0733 171° South 161 185 12,000  Level Salt Lake Center
07:59PM 40.5225 -112.0642 171° South 164 189 12,000  Level Salt Lake Center
08:00PM 40.4783 -112.0558 172° South 161 185 12,000  Level Salt Lake Center
08:01PM 40.4261 -112.0489 174° South 162 186 12,000  Level Salt Lake Center
08:02PM 40.3903 -112.0356 164° South 160 184 12,100  Climbing Salt Lake Center
08:03PM 40.3464 -112.0264 171° South 160 184 12,000 -60 Descending Salt Lake Center
08:04PM 40.3028 -112.0164 170° South 160 184 12,000  Level Salt Lake Center
08:05PM 40.2503 -112.0039 170° South 160 184 12,000  Level Salt Lake Center
08:06PM 40.2047 -111.9936 170° South 166 191 12,000  Level Salt Lake Center
08:07PM 40.1608 -112.0081 194° South 162 186 12,000  Level Salt Lake Center
08:08PM 40.1203 -112.0328 205° Southwest 160 184 12,000  Level Salt Lake Center
08:09PM 40.0786 -112.0544 202° Southwest 162 186 12,000  Level Salt Lake Center
08:10PM 40.0353 -112.0800 204° Southwest 170 196 12,000  Level Salt Lake Center
08:11PM 39.9933 -112.1053 205° Southwest 167 192 12,000  Level Salt Lake Center
08:12PM 39.9397 -112.1372 205° Southwest 177 204 12,000  Level Salt Lake Center
08:13PM 39.8900 -112.1653 203° Southwest 192 221 12,000  Level Salt Lake Center
08:14PM 39.8453 -112.1950 207° Southwest 180 207 12,000  Level Salt Lake Center
08:15PM 39.8019 -112.2208 205° Southwest 174 200 12,000  Level Salt Lake Center
08:17PM 39.7569 -112.2464 204° Southwest 175 201 12,000  Level Salt Lake Center
08:18PM 39.7142 -112.2711 204° Southwest 173 199 12,000  Level Salt Lake Center
08:19PM 39.6711 -112.2956 204° Southwest 170 196 12,000  Level Salt Lake Center
08:20PM 39.6164 -112.3250 203° Southwest 173 199 12,000  Level Salt Lake Center
08:21PM 39.5719 -112.3508 204° Southwest 174 200 12,000  Level Salt Lake Center
08:22PM 39.5269 -112.3772 204° Southwest 176 203 12,000  Level Salt Lake Center
08:23PM 39.4825 -112.4033 204° Southwest 176 203 12,000  Level Salt Lake Center
08:24PM 39.4372 -112.4281 203° Southwest 176 203 12,000  Level Salt Lake Center
08:25PM 39.3936 -112.4522 203° Southwest 174 200 12,000  Level Salt Lake Center
08:26PM 39.3486 -112.4742 201° Southwest 173 199 12,000  Level Salt Lake Center
08:27PM 39.2975 -112.5036 204° Southwest 170 196 12,000  Level Salt Lake Center
08:28PM 39.2481 -112.5100 186° South 173 199 12,000  Level Salt Lake Center
08:29PM 39.2036 -112.5158 186° South 175 201 12,000  Level Salt Lake Center
08:30PM 39.1558 -112.5258 189° South 174 200 12,000  Level Salt Lake Center
08:31PM 39.0994 -112.5331 186° South 171 197 12,000  Level Salt Lake Center
08:32PM 39.0514 -112.5400 186° South 173 199 12,000  Level Salt Lake Center
08:33PM 39.0017 -112.5478 187° South 176 203 12,000  Level Salt Lake Center
08:34PM 38.9533 -112.5556 187° South 177 204 12,000  Level Salt Lake Center
08:35PM 38.9047 -112.5606 185° South 176 203 12,000  Level Salt Lake Center
08:36PM 38.8567 -112.5656 185° South 175 201 12,000  Level Salt Lake Center
08:37PM 38.8094 -112.5714 185° South 173 199 12,000  Level Salt Lake Center
08:38PM 38.7536 -112.5800 187° South 170 196 12,000  Level Salt Lake Center
08:39PM 38.7072 -112.5861 186° South 169 194 12,000  Level Salt Lake Center
08:40PM 38.6614 -112.5917 185° South 167 192 12,000  Level Salt Lake Center
08:41PM 38.6133 -112.5975 185° South 170 196 12,000  Level Salt Lake Center
08:42PM 38.5653 -112.6047 187° South 172 198 12,000  Level Salt Lake Center
08:43PM 38.5183 -112.6125 187° South 171 197 12,000  Level Salt Lake Center
08:44PM 38.4725 -112.6178 185° South 168 193 12,000  Level Salt Lake Center
08:45PM 38.4169 -112.6239 185° South 168 193 12,000  Level Salt Lake Center
08:46PM 38.3714 -112.6303 186° South 166 191 12,000  Level Salt Lake Center
08:47PM 38.3267 -112.6353 185° South 164 189 12,000  Level Salt Lake Center
08:48PM 38.2878 -112.6256 169° South 163 188 12,000  Level Salt Lake Center
08:50PM 38.2444 -112.5941 150° Southeast  Level FlightAware Approximate
08:52PM 38.1228 -112.5247 158° South 180 207 12,000  Level Los Angeles Center
08:53PM 38.0672 -112.4964 158° South 179 206 12,000  Level Los Angeles Center
08:54PM 38.0222 -112.4725 157° South 177 204 12,000  Level Los Angeles Center
08:55PM 37.9781 -112.4494 158° South 175 201 12,000  Level Los Angeles Center
08:56PM 37.9333 -112.4267 158° South 173 199 12,000  Level Salt Lake Center
08:57PM 37.9575 -112.4370 158° South  Level FlightAware Approximate
08:57PM 37.8875 -112.4036 158° South 174 200 12,000  Level Salt Lake Center
08:58PM 37.8417 -112.3789 157° South 176 203 12,000  Level Salt Lake Center
08:59PM 37.7942 -112.3561 159° South 179 206 12,000  Level Salt Lake Center
09:00PM 37.7478 -112.3319 158° South 180 207 12,000 -60 Level Salt Lake Center
09:01PM 37.7008 -112.3069 157° South 181 208 11,900 -60 Descending Salt Lake Center
09:02PM 37.6494 -112.2917 167° South 184 212 11,900 -60 Level Salt Lake Center
09:03PM 37.5875 -112.2892 178° South 185 213 11,800 -60 Descending Salt Lake Center
09:04PM 37.5350 -112.2881 179° South 186 214 11,800  Level Salt Lake Center
09:05PM 37.4839 -112.2819 175° South 186 214 11,800  Level Salt Lake Center
09:06PM 37.4367 -112.2783 177° South 179 206 11,800  Level Salt Lake Center
09:07PM 37.3911 -112.2750 177° South 172 198 11,800  Level Salt Lake Center
09:08PM 37.3439 -112.2697 175° South 169 194 11,800  Level Salt Lake Center
09:10PM 37.2964 -112.2642 175° South 170 196 11,800  Level Salt Lake Center
09:11PM 37.2500 -112.2592 175° South 169 194 11,800  Level Salt Lake Center
09:12PM 37.2028 -112.2519 173° South 169 194 11,800  Level Salt Lake Center
09:13PM 37.1450 -112.2478 177° South 171 197 11,800  Level Salt Lake Center
09:14PM 37.0983 -112.2450 177° South 170 196 11,800  Level Salt Lake Center
09:15PM 37.0411 -112.2403 176° South 170 196 11,800  Level Los Angeles Center
09:16PM 36.9922 -112.2347 175° South 173 199 11,800  Level Los Angeles Center
09:17PM 36.9439 -112.2306 176° South 174 200 11,800  Level Los Angeles Center
09:18PM 36.8928 -112.2275 177° South 178 205 11,800  Level Los Angeles Center
09:19PM 36.8350 -112.2217 175° South 175 201 11,800  Level Los Angeles Center
09:20PM 36.7894 -112.2186 177° South 167 192 11,800  Level Los Angeles Center
09:21PM 36.7511 -112.2119 172° South 170 196 11,800  Level Los Angeles Center
09:22PM 36.6953 -112.2069 176° South 168 193 11,800  Level Los Angeles Center
09:23PM 36.6492 -112.2031 176° South 167 192 11,800  Level Los Angeles Center
09:24PM 36.6011 -112.1986 176° South 169 194 11,800  Level Los Angeles Center
09:25PM 36.5533 -112.1903 172° South 172 198 11,800  Level Los Angeles Center
09:26PM 36.4964 -112.1675 162° South 176 203 11,800  Level Los Angeles Center
09:27PM 36.4503 -112.1503 163° South 175 201 11,900  Climbing Los Angeles Center
09:28PM 36.4031 -112.1364 167° South 174 200 11,900  Level Los Angeles Center
09:29PM 36.3542 -112.1267 171° South 176 203 11,900  Level Los Angeles Center
09:31PM 36.3086 -112.1331 186° South 168 193 11,900  Level Los Angeles Center
09:32PM 36.2525 -112.1506 194° South 171 197 11,900  Level Los Angeles Center
09:33PM 36.1981 -112.1658 193° South 173 199 11,900  Level Los Angeles Center
09:34PM 36.1514 -112.1794 193° South 174 200 11,900  Level Los Angeles Center
09:35PM 36.1067 -112.1942 195° South 170 196 11,900  Level Los Angeles Center
09:36PM 36.0622 -112.2125 198° South 170 196 11,900  Level Los Angeles Center
09:37PM 36.0281 -112.2244 196° South 165 190 11,900  Level Los Angeles Center
09:38PM 35.9789 -112.2503 203° Southwest 161 185 11,900  Level Los Angeles Center
09:39PM 35.9358 -112.2700 200° South 166 191 11,900 -240 Level Los Angeles Center
09:40PM 35.8828 -112.2942 200° South 169 194 11,500 -300 Descending Los Angeles Center
09:41PM 35.8339 -112.2917 178° South 174 200 11,400 -60 Descending Los Angeles Center
09:42PM 35.7864 -112.2814 170° South 174 200 11,400  Level Los Angeles Center
09:43PM 35.7392 -112.2750 174° South 172 198 11,400  Level Los Angeles Center
09:44PM 35.6933 -112.2717 177° South 168 193 11,400  Level Los Angeles Center
09:45PM 35.6372 -112.2681 177° South 169 194 11,400  Level Los Angeles Center
09:46PM 35.5997 -112.2636 174° South 168 193 11,400  Level Albuquerque Center
09:47PM 35.5539 -112.2589 175° South 167 192 11,500 60 Climbing Albuquerque Center
09:48PM 35.5067 -112.2536 175° South 169 194 11,600  Climbing Albuquerque Center
09:49PM 35.4611 -112.2492 175° South 166 191 11,500 -60 Descending Albuquerque Center
09:50PM 35.4142 -112.2436 174° South 169 194 11,500  Level Albuquerque Center
09:51PM 35.3567 -112.2392 176° South 172 198 11,500  Level Albuquerque Center
09:52PM 35.3089 -112.2347 176° South 172 198 11,500  Level Albuquerque Center
09:53PM 35.2617 -112.2306 176° South 172 198 11,500  Level Albuquerque Center
09:54PM 35.2136 -112.2261 176° South 173 199 11,500  Level Albuquerque Center
09:55PM 35.1669 -112.2233 177° South 170 196 11,500  Level Albuquerque Center
09:56PM 35.1194 -112.2172 174° South 171 197 11,500  Level Albuquerque Center
09:57PM 35.0731 -112.2133 176° South 169 194 11,500  Level Albuquerque Center
09:58PM 35.0281 -112.2097 176° South 165 190 11,500  Level Albuquerque Center
09:59PM 34.9817 -112.2036 174° South 167 192 11,600  Climbing Albuquerque Center
10:00PM 34.9250 -112.1997 177° South 169 194 11,500 -60 Descending Albuquerque Center
10:01PM 34.8778 -112.1961 176° South 170 196 11,500  Level Albuquerque Center
10:02PM 34.8306 -112.1911 175° South 171 197 11,500  Level Albuquerque Center
10:03PM 34.7828 -112.1867 176° South 173 199 11,500  Level Albuquerque Center
10:04PM 34.7339 -112.1800 174° South 175 201 11,500 -240 Level Albuquerque Center
10:05PM 34.6844 -112.1742 174° South 177 204 11,100 -600 Descending Albuquerque Center
10:06PM 34.6306 -112.1686 175° South 184 212 10,300 -780 Descending Albuquerque Center
10:07PM 34.5653 -112.1639 177° South 192 221 9,600 -420 Descending Albuquerque Center
10:08PM 34.5128 -112.1594 176° South 192 221 9,500 -180 Descending Albuquerque Center
10:09PM 34.4644 -112.1542 175° South 185 213 9,300 -120 Descending Albuquerque Center
10:10PM 34.4175 -112.1506 176° South 176 203 9,300 -300 Level Albuquerque Center
10:11PM 34.3664 -112.1461 176° South 179 206 8,700 -780 Descending Albuquerque Center
10:12PM 34.3092 -112.1389 174° South 194 223 7,800 -600 Descending Albuquerque Center
10:13PM 34.2556 -112.1344 176° South 194 223 7,500 -180 Descending Albuquerque Center
10:14PM 34.2067 -112.1292 175° South 180 207 7,500  Level Albuquerque Center
10:15PM 34.1575 -112.1247 176° South 177 204 7,500 -360 Level Albuquerque Center
10:16PM 34.0969 -112.1186 175° South 185 213 6,800 -840 Descending Albuquerque Center
10:18PM 34.0422 -112.1136 176° South 197 227 5,900 -540 Descending Albuquerque Center
10:19PM 33.9889 -112.1083 175° South 196 226 5,800 -120 Descending Albuquerque Center